Time;durP1;ratioP1;P1;durP2;ratioP2;P2;SDS_P1;SDS_P2;PMS_P1;PMS_P2;Temp;Humidity;BMP_temperature;BMP_pressure;BME280_temperature;BME280_humidity;BME280_pressure;Samples;Min_cycle;Max_cycle;Signal;HPM_P1;HPM_P2
2024/03/09 00:00:39;;;;;;;33.80;23.17;;;6.90;1.00;;;;;;6291239;22;47543;-82
2024/03/09 00:03:07;;;;;;;37.73;24.27;;;6.90;1.00;;;;;;6293977;22;37628;-82
2024/03/09 00:05:34;;;;;;;35.90;24.23;;;6.90;1.00;;;;;;6298219;22;36984;-82
2024/03/09 00:08:05;;;;;;;36.97;24.10;;;6.80;1.00;;;;;;6295804;22;38255;-80
2024/03/09 00:10:31;;;;;;;35.90;25.20;;;6.80;1.00;;;;;;6297213;22;47241;-81
2024/03/09 00:12:57;;;;;;;39.23;24.87;;;6.70;1.00;;;;;;6296853;22;38451;-81
2024/03/09 00:15:26;;;;;;;42.93;27.10;;;6.70;1.00;;;;;;6297383;22;36582;-82
2024/03/09 00:17:54;;;;;;;38.97;25.60;;;6.60;1.00;;;;;;6301103;22;38910;-81
2024/03/09 00:20:22;;;;;;;40.47;26.10;;;6.50;1.00;;;;;;6297192;22;38280;-81
2024/03/09 00:22:52;;;;;;;41.27;26.93;;;6.40;1.00;;;;;;6298447;22;38520;-82
2024/03/09 00:25:22;;;;;;;44.60;26.07;;;6.30;1.00;;;;;;6300650;22;37919;-81
2024/03/09 00:27:52;;;;;;;41.10;26.13;;;6.30;1.00;;;;;;6299642;22;38144;-82
2024/03/09 00:30:21;;;;;;;43.43;26.90;;;6.20;1.00;;;;;;6294945;22;37620;-82
2024/03/09 00:32:53;;;;;;;43.10;26.77;;;6.20;1.00;;;;;;6293300;22;37526;-82
2024/03/09 00:35:29;;;;;;;50.40;27.88;;;6.20;1.00;;;;;;6293761;22;36705;-81
2024/03/09 00:37:57;;;;;;;44.80;27.10;;;6.20;1.00;;;;;;6295651;22;38532;-81
2024/03/09 00:40:30;;;;;;;45.17;28.23;;;6.10;1.00;;;;;;6292842;22;38012;-82
2024/03/09 00:42:59;;;;;;;44.23;25.90;;;6.10;1.00;;;;;;6292393;22;38231;-81
2024/03/09 00:45:25;;;;;;;43.77;27.80;;;6.10;1.00;;;;;;6290945;22;36453;-82
2024/03/09 00:47:53;;;;;;;46.20;27.30;;;6.00;1.00;;;;;;6289481;22;38796;-82
2024/03/09 00:50:21;;;;;;;46.03;28.10;;;6.00;1.00;;;;;;6287466;22;37282;-82
2024/03/09 00:52:47;;;;;;;44.93;28.50;;;5.90;1.00;;;;;;6292531;22;37558;-82
2024/03/09 00:55:16;;;;;;;43.10;28.40;;;5.90;1.00;;;;;;6301939;22;39010;-82
2024/03/09 00:57:48;;;;;;;44.33;28.47;;;5.90;1.00;;;;;;6300882;22;40276;-81
2024/03/09 01:00:18;;;;;;;42.83;27.50;;;5.80;1.00;;;;;;6298773;22;37758;-81
2024/03/09 01:02:47;;;;;;;46.13;28.97;;;5.80;1.00;;;;;;6295201;22;39467;-82
2024/03/09 01:05:19;;;;;;;46.90;29.77;;;5.80;1.00;;;;;;6298613;22;38135;-82
2024/03/09 01:07:45;;;;;;;43.60;28.20;;;5.70;1.00;;;;;;6299495;22;38543;-80
2024/03/09 01:10:12;;;;;;;47.30;28.73;;;5.70;1.00;;;;;;6298003;22;37699;-82
2024/03/09 01:12:39;;;;;;;45.80;29.80;;;5.70;1.00;;;;;;6298233;22;37441;-82
2024/03/09 01:15:07;;;;;;;44.40;27.43;;;5.70;1.00;;;;;;6297562;22;38777;-81
2024/03/09 01:17:36;;;;;;;44.67;27.83;;;5.70;1.00;;;;;;6300643;22;41464;-82
2024/03/09 01:20:06;;;;;;;45.47;27.27;;;5.70;1.00;;;;;;6293807;22;38281;-81
2024/03/09 01:22:33;;;;;;;46.37;29.13;;;5.70;1.00;;;;;;6293824;22;47372;-81
2024/03/09 01:24:59;;;;;;;49.37;30.97;;;5.70;1.00;;;;;;6290957;22;37826;-82
2024/03/09 01:27:26;;;;;;;47.10;28.83;;;5.60;1.00;;;;;;6283042;22;39115;-81
2024/03/09 01:29:58;;;;;;;46.43;29.13;;;5.60;1.00;;;;;;6289597;22;38526;-82
2024/03/09 01:32:25;;;;;;;52.27;28.93;;;5.50;1.00;;;;;;6281553;22;38118;-82
2024/03/09 01:34:51;;;;;;;47.47;29.57;;;5.50;1.00;;;;;;6282931;22;36566;-81
2024/03/09 01:37:20;;;;;;;46.27;29.97;;;5.50;1.00;;;;;;6288033;22;37539;-82
2024/03/09 01:39:46;;;;;;;51.93;28.93;;;5.50;1.00;;;;;;6287950;22;37747;-81
2024/03/09 01:42:21;;;;;;;46.10;29.50;;;5.50;1.00;;;;;;6288917;22;37330;-81
2024/03/09 01:44:48;;;;;;;44.30;29.10;;;5.50;1.00;;;;;;6288191;22;36322;-81
2024/03/09 01:47:18;;;;;;;47.63;28.80;;;5.50;1.00;;;;;;6287690;22;38037;-82
2024/03/09 01:49:45;;;;;;;46.17;28.93;;;5.50;1.00;;;;;;6289675;22;37273;-81
2024/03/09 01:52:12;;;;;;;45.37;27.87;;;5.50;1.00;;;;;;6285935;22;37861;-81
2024/03/09 01:54:40;;;;;;;45.20;28.40;;;5.50;1.00;;;;;;6287427;22;36804;-82
2024/03/09 01:57:07;;;;;;;47.00;29.17;;;5.60;1.00;;;;;;6286993;22;40193;-81
2024/03/09 01:59:34;;;;;;;42.53;27.30;;;5.60;1.00;;;;;;6284816;22;37054;-82
2024/03/09 02:02:46;;;;;;;46.37;28.37;;;5.60;1.00;;;;;;6210524;22;37802;-80
2024/03/09 02:05:13;;;;;;;47.50;28.80;;;5.60;1.00;;;;;;6186411;22;37277;-82
2024/03/09 02:07:45;;;;;;;45.97;28.97;;;5.60;1.00;;;;;;6191721;23;37653;-82
2024/03/09 02:10:11;;;;;;;45.67;29.63;;;5.60;1.00;;;;;;6192885;22;38649;-82
2024/03/09 02:12:38;;;;;;;48.13;28.50;;;5.60;1.00;;;;;;6188548;23;37456;-81
2024/03/09 02:15:05;;;;;;;47.73;28.63;;;5.60;1.00;;;;;;6186437;22;37064;-82
2024/03/09 02:17:33;;;;;;;47.73;28.63;;;5.60;1.00;;;;;;6188990;23;37901;-81
2024/03/09 02:19:59;;;;;;;43.90;27.90;;;5.60;1.00;;;;;;6190588;23;38690;-82
2024/03/09 02:22:27;;;;;;;45.83;27.53;;;5.60;1.00;;;;;;6192184;23;37120;-82
2024/03/09 02:24:58;;;;;;;42.53;25.93;;;5.60;1.00;;;;;;6196821;23;37118;-82
2024/03/09 02:27:27;;;;;;;40.33;26.80;;;5.70;1.00;;;;;;6196567;22;38019;-82
2024/03/09 02:29:53;;;;;;;47.87;27.70;;;5.80;1.00;;;;;;6198893;23;39078;-82
2024/03/09 02:32:21;;;;;;;45.67;27.13;;;5.80;1.00;;;;;;6199083;22;39408;-82
2024/03/09 02:34:48;;;;;;;42.73;27.47;;;5.90;1.00;;;;;;6201601;22;38000;-82
2024/03/09 02:37:18;;;;;;;48.00;28.03;;;5.80;1.00;;;;;;6199700;22;38748;-82
2024/03/09 02:39:45;;;;;;;41.40;27.70;;;5.90;1.00;;;;;;6199984;23;37454;-82
2024/03/09 02:42:11;;;;;;;40.47;26.17;;;6.00;1.00;;;;;;6196020;22;37006;-82
2024/03/09 02:44:40;;;;;;;42.53;27.37;;;6.00;1.00;;;;;;6202233;22;37882;-81
2024/03/09 02:47:07;;;;;;;46.90;27.43;;;6.00;1.00;;;;;;6202009;22;38795;-82
2024/03/09 02:49:35;;;;;;;42.87;26.43;;;6.10;1.00;;;;;;6202053;23;37556;-82
2024/03/09 02:52:01;;;;;;;40.57;26.07;;;6.10;1.00;;;;;;6200174;23;37252;-82
2024/03/09 02:54:27;;;;;;;40.07;26.40;;;6.10;1.00;;;;;;6202059;22;48744;-81
2024/03/09 02:56:53;;;;;;;42.50;27.20;;;6.10;1.00;;;;;;6198633;23;39519;-82
2024/03/09 02:59:20;;;;;;;44.23;26.33;;;6.10;1.00;;;;;;6201217;22;38016;-82
2024/03/09 03:01:46;;;;;;;44.00;27.03;;;6.10;1.00;;;;;;6201808;23;38343;-82
2024/03/09 03:04:13;;;;;;;43.03;26.90;;;6.10;1.00;;;;;;6200280;22;38244;-83
2024/03/09 03:06:43;;;;;;;41.97;27.50;;;6.10;1.00;;;;;;6200420;23;40444;-82
2024/03/09 03:09:15;;;;;;;43.10;26.60;;;6.10;1.00;;;;;;6200694;22;39887;-82
2024/03/09 03:11:41;;;;;;;46.35;28.60;;;6.10;1.00;;;;;;6200878;23;39172;-82
2024/03/09 03:14:09;;;;;;;46.80;26.47;;;6.10;1.00;;;;;;6197314;22;36247;-82
2024/03/09 03:16:35;;;;;;;39.70;25.83;;;6.10;1.00;;;;;;6202757;23;38591;-82
2024/03/09 03:19:21;;;;;;;44.07;27.20;;;6.10;1.00;;;;;;6202306;22;38321;-82
2024/03/09 03:21:47;;;;;;;43.07;27.00;;;6.00;1.00;;;;;;6195590;22;50259;-82
2024/03/09 03:24:13;;;;;;;43.97;25.80;;;6.10;1.00;;;;;;6198943;22;37994;-82
2024/03/09 03:26:46;;;;;;;43.93;26.93;;;6.10;1.00;;;;;;6200770;23;39212;-83
2024/03/09 03:29:12;;;;;;;42.07;26.43;;;6.10;1.00;;;;;;6200197;22;38777;-82
2024/03/09 03:31:41;;;;;;;41.83;26.07;;;6.00;1.00;;;;;;6202822;23;39154;-82
2024/03/09 03:34:07;;;;;;;41.80;26.47;;;6.00;1.00;;;;;;6199006;22;37106;-82
2024/03/09 03:36:52;;;;;;;47.27;27.17;;;6.10;1.00;;;;;;6192421;22;38995;-82
2024/03/09 03:39:18;;;;;;;38.93;25.37;;;6.10;1.00;;;;;;6175825;22;37323;-82
2024/03/09 03:41:47;;;;;;;40.73;25.67;;;6.10;1.00;;;;;;6183647;23;37307;-82
2024/03/09 03:44:14;;;;;;;42.83;26.13;;;6.10;1.00;;;;;;6189974;22;38810;-82
2024/03/09 03:46:53;;;;;;;42.47;26.53;;;6.10;1.00;;;;;;6170827;23;37683;-81
2024/03/09 03:49:27;;;;;;;44.80;26.50;;;6.00;1.00;;;;;;6189537;22;37726;-83
2024/03/09 03:51:55;;;;;;;42.57;25.97;;;6.10;1.00;;;;;;6179520;22;37287;-82
2024/03/09 03:54:31;;;;;;;41.90;26.37;;;6.10;1.00;;;;;;6175264;22;36209;-82
2024/03/09 03:57:17;;;;;;;42.33;26.53;;;6.10;1.00;;;;;;6179558;23;37801;-82
2024/03/09 03:59:46;;;;;;;44.80;26.30;;;6.10;1.00;;;;;;6171607;22;47082;-82
2024/03/09 04:02:13;;;;;;;43.63;26.93;;;6.00;1.00;;;;;;6194765;22;38112;-83
2024/03/09 04:04:40;;;;;;;43.17;26.97;;;6.10;1.00;;;;;;6207285;22;38846;-82
2024/03/09 04:07:06;;;;;;;40.97;25.77;;;6.00;1.00;;;;;;6204557;22;37870;-82
2024/03/09 04:09:32;;;;;;;41.80;25.33;;;6.10;1.00;;;;;;6206009;23;38809;-82
2024/03/09 04:11:59;;;;;;;39.27;26.27;;;6.00;1.00;;;;;;6204279;23;37387;-82
2024/03/09 04:14:26;;;;;;;40.60;27.23;;;6.10;1.00;;;;;;6202570;22;38234;-82
2024/03/09 04:16:53;;;;;;;40.13;25.27;;;6.10;1.00;;;;;;6202295;22;39165;-81
2024/03/09 04:19:20;;;;;;;40.57;26.00;;;6.10;1.00;;;;;;6206566;22;38646;-83
2024/03/09 04:21:46;;;;;;;40.53;25.60;;;6.10;1.00;;;;;;6205149;23;37182;-82
2024/03/09 04:24:12;;;;;;;43.17;26.97;;;6.10;1.00;;;;;;6206041;22;38433;-82
2024/03/09 04:26:38;;;;;;;42.07;26.13;;;6.10;1.00;;;;;;6204073;23;39080;-82
2024/03/09 04:29:05;;;;;;;40.33;25.17;;;6.10;1.00;;;;;;6205843;22;39882;-82
2024/03/09 04:31:32;;;;;;;40.07;26.20;;;6.10;1.00;;;;;;6202768;23;36936;-82
2024/03/09 04:34:02;;;;;;;38.83;24.83;;;6.10;1.00;;;;;;6207444;22;38132;-82
2024/03/09 04:36:31;;;;;;;40.43;25.63;;;6.10;1.00;;;;;;6207306;23;47862;-82
2024/03/09 04:39:00;;;;;;;41.10;25.57;;;6.20;1.00;;;;;;6233794;22;37662;-82
2024/03/09 04:41:32;;;;;;;40.73;26.03;;;6.10;1.00;;;;;;6231687;22;37304;-82
2024/03/09 04:44:00;;;;;;;41.23;25.80;;;6.20;1.00;;;;;;6206809;23;36837;-82
2024/03/09 04:46:27;;;;;;;36.90;23.97;;;6.10;1.00;;;;;;6202984;23;39226;-82
2024/03/09 04:48:55;;;;;;;39.73;25.20;;;6.20;1.00;;;;;;6206981;23;20032;-82
2024/03/09 04:51:22;;;;;;;40.00;24.53;;;6.20;1.00;;;;;;6204646;22;38954;-82
2024/03/09 04:53:49;;;;;;;37.47;23.70;;;6.20;1.00;;;;;;6202955;23;38825;-82
2024/03/09 04:56:16;;;;;;;42.27;24.83;;;6.20;1.00;;;;;;6193688;22;38799;-82
2024/03/09 04:58:42;;;;;;;38.00;25.70;;;6.20;1.00;;;;;;6192850;23;38382;-82
2024/03/09 05:01:08;;;;;;;35.67;24.07;;;6.10;1.00;;;;;;6191501;22;37514;-81
2024/03/09 05:03:35;;;;;;;38.07;24.67;;;6.10;1.00;;;;;;6190563;22;36926;-82
2024/03/09 05:06:02;;;;;;;39.27;24.47;;;6.10;1.00;;;;;;6190047;22;39198;-82
2024/03/09 05:08:28;;;;;;;39.00;25.57;;;6.10;1.00;;;;;;6201577;23;38094;-81
2024/03/09 05:10:54;;;;;;;40.17;24.40;;;6.10;1.00;;;;;;6200240;23;38294;-82
2024/03/09 05:13:20;;;;;;;38.20;25.80;;;6.10;1.00;;;;;;6198038;22;37021;-82
2024/03/09 05:15:50;;;;;;;38.73;25.60;;;6.10;1.00;;;;;;6200446;23;37730;-83
2024/03/09 05:18:17;;;;;;;38.60;24.77;;;6.10;1.00;;;;;;6199782;22;37449;-82
2024/03/09 05:20:43;;;;;;;40.33;25.20;;;6.10;1.00;;;;;;6196552;22;38229;-82
2024/03/09 05:23:10;;;;;;;39.60;24.37;;;6.10;1.00;;;;;;6198098;22;36385;-82
2024/03/09 05:25:36;;;;;;;41.27;24.17;;;6.10;1.00;;;;;;6203592;22;39152;-82
2024/03/09 05:28:03;;;;;;;36.40;24.10;;;6.10;1.00;;;;;;6200122;22;39692;-82
2024/03/09 05:30:29;;;;;;;41.70;25.33;;;6.10;1.00;;;;;;6198802;22;37205;-82
2024/03/09 05:33:06;;;;;;;37.97;24.70;;;6.10;1.00;;;;;;6201670;23;37159;-82
2024/03/09 05:35:37;;;;;;;39.97;24.83;;;6.10;1.00;;;;;;6196209;23;47003;-83
2024/03/09 05:38:07;;;;;;;38.90;25.60;;;6.00;1.00;;;;;;6200891;22;37588;-82
2024/03/09 05:40:34;;;;;;;39.07;25.63;;;6.00;1.00;;;;;;6200251;23;38750;-82
2024/03/09 05:43:11;;;;;;;42.23;24.97;;;6.00;1.00;;;;;;6201229;23;36434;-82
2024/03/09 05:45:38;;;;;;;40.60;25.80;;;6.00;1.00;;;;;;6200893;23;48005;-83
2024/03/09 05:48:05;;;;;;;38.17;25.07;;;5.90;1.00;;;;;;6198736;22;37516;-82
2024/03/09 05:50:32;;;;;;;39.00;25.70;;;5.90;1.00;;;;;;6201553;23;38060;-82
2024/03/09 05:53:00;;;;;;;39.77;24.80;;;5.90;1.00;;;;;;6200637;23;36382;-82
2024/03/09 05:55:27;;;;;;;36.93;22.97;;;5.80;1.00;;;;;;6207406;22;37569;-82
2024/03/09 05:57:54;;;;;;;37.47;24.30;;;5.80;1.00;;;;;;6206097;23;38930;-82
2024/03/09 06:00:27;;;;;;;37.30;23.20;;;5.90;1.00;;;;;;6201167;23;37545;-81
2024/03/09 06:02:54;;;;;;;36.58;24.35;;;5.90;1.00;;;;;;6219086;23;47501;-82
2024/03/09 06:05:28;;;;;;;41.20;25.37;;;5.90;1.00;;;;;;6201162;22;39019;-81
2024/03/09 06:07:55;;;;;;;36.23;23.97;;;6.00;1.00;;;;;;6203595;23;38113;-83
2024/03/09 06:10:21;;;;;;;37.93;23.23;;;6.00;1.00;;;;;;6202967;22;37695;-82
2024/03/09 06:12:49;;;;;;;41.43;24.70;;;5.90;1.00;;;;;;6207855;23;37734;-82
2024/03/09 06:15:16;;;;;;;36.23;23.17;;;5.90;1.00;;;;;;6206889;22;38622;-82
2024/03/09 06:17:44;;;;;;;35.80;23.60;;;6.00;1.00;;;;;;6209549;23;39025;-82
2024/03/09 06:20:17;;;;;;;36.03;23.47;;;6.00;1.00;;;;;;6204524;22;38889;-82
2024/03/09 06:22:45;;;;;;;37.27;25.10;;;6.10;1.00;;;;;;6202971;22;38143;-82
2024/03/09 06:25:19;;;;;;;39.33;24.30;;;6.10;1.00;;;;;;6197758;22;38664;-81
2024/03/09 06:28:08;;;;;;;40.23;24.80;;;6.10;1.00;;;;;;6211220;22;37869;-82
2024/03/09 06:30:36;;;;;;;39.43;23.73;;;6.10;1.00;;;;;;6205854;22;47791;-81
2024/03/09 06:33:02;;;;;;;35.93;24.20;;;6.10;1.00;;;;;;6204256;22;37872;-82
2024/03/09 06:35:29;;;;;;;39.13;24.13;;;6.10;1.00;;;;;;6200587;23;38183;-82
2024/03/09 06:38:07;;;;;;;38.10;23.83;;;6.00;1.00;;;;;;6200313;22;38752;-82
2024/03/09 06:40:41;;;;;;;35.77;23.83;;;6.10;1.00;;;;;;6198799;23;47170;-82
2024/03/09 06:43:11;;;;;;;38.47;24.50;;;6.10;1.00;;;;;;6198626;22;37945;-82
2024/03/09 06:45:46;;;;;;;35.20;23.63;;;6.10;1.00;;;;;;6198408;23;37849;-81
2024/03/09 06:48:14;;;;;;;37.40;23.07;;;6.10;1.00;;;;;;6199218;22;38816;-82
2024/03/09 06:50:46;;;;;;;36.03;23.00;;;6.10;1.00;;;;;;6197071;23;37821;-82
2024/03/09 06:53:25;;;;;;;;;;;;;;;;;;;;;
2024/03/09 06:56:03;;;;;;;35.93;23.40;;;6.10;1.00;;;;;;6180429;22;39747;-82
2024/03/09 06:58:34;;;;;;;38.10;23.50;;;6.20;1.00;;;;;;6153247;23;47819;-82
2024/03/09 07:01:01;;;;;;;40.70;25.33;;;6.20;1.00;;;;;;6120298;23;37205;-82
2024/03/09 07:03:30;;;;;;;35.83;24.00;;;6.20;1.00;;;;;;6124595;23;48503;-82
2024/03/09 07:05:56;;;;;;;37.43;22.57;;;6.20;1.00;;;;;;6149112;23;38875;-82
2024/03/09 07:08:23;;;;;;;36.10;23.17;;;6.20;1.00;;;;;;6170145;23;39191;-82
2024/03/09 07:10:50;;;;;;;38.73;22.37;;;6.30;1.00;;;;;;6149368;23;37273;-82
2024/03/09 07:13:18;;;;;;;34.23;22.87;;;6.20;1.00;;;;;;6147375;23;36974;-82
2024/03/09 07:15:47;;;;;;;34.67;22.27;;;6.30;1.00;;;;;;6150044;23;38009;-82
2024/03/09 07:18:13;;;;;;;33.67;22.07;;;6.30;1.00;;;;;;6174443;23;38371;-82
2024/03/09 07:20:39;;;;;;;34.10;22.03;;;6.40;1.00;;;;;;6175415;23;39496;-82
2024/03/09 07:23:06;;;;;;;35.63;22.07;;;6.40;1.00;;;;;;6148068;23;36756;-82
2024/03/09 07:25:33;;;;;;;35.67;22.87;;;6.40;1.00;;;;;;6174165;23;38151;-82
2024/03/09 07:27:59;;;;;;;35.37;23.27;;;6.40;1.00;;;;;;6170099;23;37736;-83
2024/03/09 07:30:26;;;;;;;36.10;23.00;;;6.50;1.00;;;;;;6147644;23;38534;-82
2024/03/09 07:32:53;;;;;;;36.77;24.13;;;6.50;1.00;;;;;;6196794;23;36998;-82
2024/03/09 07:35:20;;;;;;;36.27;24.30;;;6.50;1.00;;;;;;6200753;22;37852;-82
2024/03/09 07:37:48;;;;;;;34.03;22.63;;;6.50;1.00;;;;;;6196158;23;38711;-82
2024/03/09 07:40:16;;;;;;;42.03;23.00;;;6.50;1.00;;;;;;6195475;22;37137;-81
2024/03/09 07:42:43;;;;;;;35.27;23.40;;;6.50;1.00;;;;;;6203839;22;37907;-82
2024/03/09 07:45:13;;;;;;;33.43;23.20;;;6.50;1.00;;;;;;6198067;22;37941;-82
2024/03/09 07:47:45;;;;;;;35.80;23.47;;;6.50;1.00;;;;;;6204374;23;37665;-82
2024/03/09 07:50:13;;;;;;;36.80;22.38;;;6.60;1.00;;;;;;6206297;22;38383;-82
2024/03/09 07:52:48;;;;;;;36.70;23.07;;;6.60;1.00;;;;;;6210844;23;36343;-83
2024/03/09 07:55:16;;;;;;;36.57;22.97;;;6.70;1.00;;;;;;6213597;22;38713;-83
2024/03/09 07:57:54;;;;;;;33.40;22.87;;;6.80;1.00;;;;;;6215248;22;39959;-83
2024/03/09 08:00:27;;;;;;;33.37;21.97;;;6.80;1.00;;;;;;6214261;22;37940;-83
2024/03/09 08:02:55;;;;;;;35.97;23.13;;;6.90;1.00;;;;;;6211093;23;38801;-84
2024/03/09 08:05:31;;;;;;;35.90;22.57;;;7.00;1.00;;;;;;6204114;22;38697;-83
2024/03/09 08:08:08;;;;;;;34.33;22.07;;;7.10;1.00;;;;;;6219946;22;38784;-81
2024/03/09 08:10:38;;;;;;;34.60;21.93;;;7.20;1.00;;;;;;6247552;22;48458;-82
2024/03/09 08:13:24;;;;;;;30.80;20.47;;;7.20;1.00;;;;;;6201266;22;38644;-81
2024/03/09 08:15:53;;;;;;;30.27;20.10;;;7.30;1.00;;;;;;6204096;22;50198;-82
2024/03/09 08:18:21;;;;;;;32.33;21.73;;;7.40;1.00;;;;;;6192086;22;38013;-81
2024/03/09 08:20:52;;;;;;;35.40;21.10;;;7.40;1.00;;;;;;6207000;22;37676;-84
2024/03/09 08:23:22;;;;;;;33.27;20.13;;;7.50;1.00;;;;;;6179521;22;38184;-81
2024/03/09 08:25:49;;;;;;;30.77;20.90;;;7.50;1.00;;;;;;6192871;22;38935;-81
2024/03/09 08:28:35;;;;;;;31.57;19.93;;;7.50;1.00;;;;;;6206621;22;38436;-82
2024/03/09 08:31:06;;;;;;;34.17;20.47;;;7.60;1.00;;;;;;6196418;22;38838;-81
2024/03/09 08:33:39;;;;;;;30.17;19.20;;;7.60;1.00;;;;;;6218479;22;49519;-82
2024/03/09 08:36:10;;;;;;;29.37;19.43;;;7.60;1.00;;;;;;6201637;22;39364;-84
2024/03/09 08:38:57;;;;;;;29.63;19.57;;;7.60;1.00;;;;;;6198202;22;40272;-83
2024/03/09 08:41:51;;;;;;;30.70;21.47;;;7.70;1.00;;;;;;6170938;22;38605;-81
2024/03/09 08:44:22;;;;;;;28.67;18.63;;;7.90;1.00;;;;;;6208566;22;38079;-82
2024/03/09 08:47:10;;;;;;;26.57;18.60;;;8.10;1.00;;;;;;6184730;22;40297;-81
2024/03/09 08:49:57;;;;;;;30.70;18.47;;;8.30;1.00;;;;;;6191191;22;49241;-82
2024/03/09 08:53:07;;;;;;;28.43;19.53;;;8.50;1.00;;;;;;6221790;22;40707;-82
2024/03/09 08:55:47;;;;;;;28.87;18.27;;;8.70;1.00;;;;;;6051394;23;49022;-82
2024/03/09 09:01:54;;;;;;;28.73;19.10;;;8.80;1.00;;;;;;6262741;22;20012;-81
2024/03/09 09:04:34;;;;;;;28.93;18.40;;;8.70;1.00;;;;;;6282585;22;38718;-81
2024/03/09 09:07:06;;;;;;;26.80;18.70;;;8.70;1.00;;;;;;6281022;22;36495;-81
2024/03/09 09:09:37;;;;;;;28.43;19.93;;;8.70;1.00;;;;;;6285207;22;47758;-81
2024/03/09 09:12:11;;;;;;;32.83;20.40;;;8.80;1.00;;;;;;6289663;22;39182;-83
2024/03/09 09:14:43;;;;;;;29.53;19.60;;;8.90;1.00;;;;;;6296907;22;39125;-82
2024/03/09 09:17:15;;;;;;;27.10;18.60;;;9.00;1.00;;;;;;6285104;22;37385;-81
2024/03/09 09:19:45;;;;;;;27.83;17.87;;;9.10;1.00;;;;;;6268706;22;38061;-81
2024/03/09 09:22:12;;;;;;;27.07;17.63;;;9.20;1.00;;;;;;6270391;22;37421;-80
2024/03/09 09:24:48;;;;;;;28.07;17.77;;;9.30;1.00;;;;;;6278715;22;38972;-81
2024/03/09 09:27:25;;;;;;;23.87;17.37;;;9.30;1.00;;;;;;6283248;22;36751;-81
2024/03/09 09:30:05;;;;;;;23.97;17.23;;;9.40;1.00;;;;;;6272158;22;38334;-81
2024/03/09 09:32:43;;;;;;;27.90;17.97;;;9.50;1.00;;;;;;6237929;22;48816;-81
2024/03/09 09:35:23;;;;;;;24.77;17.80;;;9.50;1.00;;;;;;6259627;22;37992;-82
2024/03/09 09:38:05;;;;;;;25.53;17.30;;;9.70;1.00;;;;;;6303905;22;38081;-81
2024/03/09 09:40:37;;;;;;;26.73;16.57;;;9.70;1.00;;;;;;6290074;22;48978;-80
2024/03/09 09:43:08;;;;;;;23.20;16.23;;;9.90;1.00;;;;;;6279482;22;38904;-80
2024/03/09 09:45:42;;;;;;;23.47;15.90;;;9.90;1.00;;;;;;6298991;22;37791;-80
2024/03/09 09:48:17;;;;;;;23.25;15.75;;;10.10;1.00;;;;;;6293990;22;37961;-81
2024/03/09 09:50:44;;;;;;;24.10;16.20;;;10.20;1.00;;;;;;6288463;22;38444;-81
2024/03/09 09:53:17;;;;;;;22.43;15.57;;;10.30;1.00;;;;;;6296336;22;39559;-80
2024/03/09 09:55:53;;;;;;;22.17;15.03;;;10.40;99.90;;;;;;6295622;22;38778;-81
2024/03/09 09:58:22;;;;;;;23.27;15.70;;;10.50;99.90;;;;;;6291478;22;39770;-80
2024/03/09 10:00:54;;;;;;;19.97;15.37;;;10.60;1.00;;;;;;6292085;22;38353;-81
2024/03/09 10:03:25;;;;;;;20.63;15.30;;;10.70;99.90;;;;;;6290453;22;38329;-80
2024/03/09 10:05:57;;;;;;;22.83;16.13;;;10.90;99.90;;;;;;6311025;22;39030;-82
2024/03/09 10:08:55;;;;;;;31.42;16.48;;;11.00;99.90;;;;;;6278857;22;38243;-81
2024/03/09 10:11:41;;;;;;;22.35;14.80;;;10.90;99.90;;;;;;6246801;22;40282;-81
2024/03/09 10:14:34;;;;;;;22.63;15.35;;;10.80;99.90;;;;;;6300081;22;39924;-82
2024/03/09 10:17:37;;;;;;;19.77;13.75;;;10.70;99.90;;;;;;6301494;22;39060;-81
2024/03/09 10:20:12;;;;;;;23.45;14.68;;;10.90;99.90;;;;;;6288123;22;37001;-82
2024/03/09 10:22:56;;;;;;;19.40;14.15;;;11.20;99.90;;;;;;6272684;22;47855;-81
2024/03/09 10:25:38;;;;;;;20.27;14.02;;;11.50;99.90;;;;;;6258736;22;49592;-81
2024/03/09 10:28:45;;;;;;;19.13;13.35;;;11.80;1.00;;;;;;6275665;22;37811;-82
2024/03/09 10:31:23;;;;;;;19.65;13.20;;;11.90;99.90;;;;;;6293227;22;36800;-82
2024/03/09 10:34:28;;;;;;;18.45;13.20;;;11.90;1.00;;;;;;6239787;22;41583;-82
2024/03/09 10:42:21;;;;;;;18.52;13.00;;;12.00;1.00;;;;;;6298561;22;20072;-82
2024/03/09 10:45:36;;;;;;;17.90;13.38;;;11.90;99.90;;;;;;6293287;22;39983;-85
2024/03/09 10:56:41;;;;;;;17.10;12.68;;;12.90;1.00;;;;;;6233399;22;20025;-82
2024/03/09 10:59:22;;;;;;;18.30;13.48;;;13.40;1.00;;;;;;6276183;22;37773;-82
2024/03/09 11:15:36;;;;;;;17.88;12.63;;;13.40;1.00;;;;;;6294194;22;20091;-83
2024/03/09 11:27:58;;;;;;;16.13;12.73;;;14.00;1.00;;;;;;6238959;22;20015;-84
2024/03/09 11:31:28;;;;;;;15.88;11.90;;;14.30;1.00;;;;;;6321653;22;39874;-82
2024/03/09 11:37:13;;;;;;;16.85;12.50;;;14.00;64.40;;;;;;6275465;22;20052;-83
2024/03/09 11:40:11;;;;;;;16.38;12.40;;;13.80;1.00;;;;;;6271039;22;50219;-82
2024/03/09 11:43:19;;;;;;;16.13;12.82;;;13.70;1.00;;;;;;6196630;22;50024;-82
2024/03/09 11:46:14;;;;;;;17.17;12.18;;;13.80;1.00;;;;;;6212825;22;50398;-82
2024/03/09 11:49:22;;;;;;;18.40;12.88;;;13.90;1.00;;;;;;6198223;22;47753;-83
2024/03/09 11:57:44;;;;;;;17.35;13.00;;;14.40;99.90;;;;;;6273243;22;20303;-81
2024/03/09 12:00:41;;;;;;;16.05;12.25;;;14.50;99.90;;;;;;6262833;22;48858;-83
2024/03/09 12:03:23;;;;;;;17.58;12.32;;;14.40;1.00;;;;;;6237906;22;50368;-82
2024/03/09 12:06:28;;;;;;;16.50;12.18;;;14.50;1.00;;;;;;6216339;22;40424;-81
2024/03/09 12:15:12;;;;;;;15.95;12.13;;;14.80;99.90;;;;;;6191031;22;50476;-82
2024/03/09 12:20:41;;;;;;;14.18;10.60;;;15.10;1.00;;;;;;6272973;22;20027;-83
2024/03/09 12:23:47;;;;;;;13.98;10.95;;;15.00;1.00;;;;;;6291236;22;39066;-83
2024/03/09 12:26:37;;;;;;;15.82;10.98;;;14.90;1.00;;;;;;6213888;22;37843;-81
2024/03/09 12:29:55;;;;;;;16.73;12.00;;;14.90;1.00;;;;;;6207043;22;40224;-81
2024/03/09 12:40:28;;;;;;;16.60;12.25;;;15.20;99.90;;;;;;6221868;22;19907;-84
2024/03/09 12:51:55;;;;;;;19.67;12.75;;;14.60;1.00;;;;;;6257803;22;20018;-83
2024/03/09 12:54:41;;;;;;;16.27;11.95;;;14.40;1.00;;;;;;6275615;22;48798;-83
2024/03/09 13:00:41;;;;;;;15.45;12.13;;;14.50;1.00;;;;;;6288378;22;39250;-83
2024/03/09 13:08:28;;;;;;;16.52;12.13;;;15.30;1.00;;;;;;6272012;22;20004;-83
2024/03/09 13:11:11;;;;;;;16.30;11.77;;;15.10;99.90;;;;;;6217287;23;37459;-83
2024/03/09 13:14:27;;;;;;;16.90;11.55;;;15.10;99.90;;;;;;6183270;22;49384;-82
2024/03/09 13:17:05;;;;;;;20.08;13.30;;;15.10;1.00;;;;;;6165377;22;50221;-83
2024/03/09 13:19:41;;;;;;;17.58;11.82;;;14.70;1.00;;;;;;6223908;22;48962;-83
2024/03/09 13:22:49;;;;;;;16.33;12.63;;;14.60;99.90;;;;;;6225930;22;37934;-82
2024/03/09 13:31:12;;;;;;;16.67;12.40;;;14.80;22.50;;;;;;6257863;22;20009;-85
2024/03/09 13:39:27;;;;;;;16.23;11.90;;;14.70;1.00;;;;;;6272726;22;19951;-83
2024/03/09 13:42:21;;;;;;;18.80;12.57;;;14.70;56.00;;;;;;6285322;22;39591;-83
2024/03/09 13:44:59;;;;;;;18.55;12.43;;;14.70;1.00;;;;;;6265136;22;39073;-83
2024/03/09 13:47:46;;;;;;;19.00;12.90;;;14.40;1.00;;;;;;6258468;22;40301;-83
2024/03/09 13:50:44;;;;;;;15.88;12.38;;;14.50;99.90;;;;;;6272705;22;38964;-83
2024/03/09 13:53:49;;;;;;;18.48;12.23;;;14.50;1.00;;;;;;6262878;22;39369;-83
2024/03/09 13:57:10;;;;;;;17.90;12.10;;;14.70;99.90;;;;;;6232371;22;38140;-84
2024/03/09 14:02:31;;;;;;;16.27;13.18;;;14.80;99.90;;;;;;6256619;22;19920;-82
2024/03/09 14:05:24;;;;;;;19.70;13.07;;;14.80;1.00;;;;;;6284891;22;40464;-83
2024/03/09 14:08:08;;;;;;;21.37;12.67;;;14.60;99.90;;;;;;6253074;22;50372;-83
2024/03/09 14:11:01;;;;;;;17.00;12.68;;;14.50;99.90;;;;;;6297951;22;49599;-83
2024/03/09 14:13:39;;;;;;;17.42;11.52;;;14.40;59.80;;;;;;6272401;22;38489;-83
2024/03/09 14:16:13;;;;;;;17.95;11.75;;;14.60;1.00;;;;;;6284542;22;39534;-83
2024/03/09 14:19:17;;;;;;;17.00;11.90;;;14.80;1.00;;;;;;6286996;22;37957;-82
2024/03/09 14:22:34;;;;;;;14.77;11.50;;;14.80;94.60;;;;;;6282097;22;48840;-82
2024/03/09 14:26:00;;;;;;;20.45;12.30;;;15.10;1.00;;;;;;6254359;22;50075;-83
2024/03/09 14:28:48;;;;;;;15.68;12.02;;;15.20;1.00;;;;;;6229458;22;36786;-83
2024/03/09 14:31:30;;;;;;;16.98;13.05;;;15.30;1.00;;;;;;6302274;22;39048;-83
2024/03/09 14:34:26;;;;;;;15.15;11.13;;;15.20;99.90;;;;;;6265160;22;38983;-83
2024/03/09 14:37:20;;;;;;;18.33;12.63;;;15.30;99.90;;;;;;6297211;22;39886;-83
2024/03/09 14:43:13;;;;;;;16.00;10.25;;;15.20;99.90;;;;;;6252424;22;20017;-84
2024/03/09 14:46:11;;;;;;;14.18;10.40;;;15.20;31.90;;;;;;6251239;22;50023;-84
2024/03/09 14:49:00;;;;;;;16.80;11.50;;;15.00;1.00;;;;;;6301113;22;49292;-83
2024/03/09 14:51:56;;;;;;;15.20;10.50;;;15.00;1.00;;;;;;6245119;22;49062;-83
2024/03/09 14:54:45;;;;;;;16.75;10.43;;;14.80;99.90;;;;;;6238607;22;37793;-82
2024/03/09 14:57:37;;;;;;;13.60;10.45;;;14.80;99.90;;;;;;6271929;22;41626;-85
2024/03/09 15:00:55;;;;;;;16.08;10.90;;;14.70;99.90;;;;;;6307388;22;39773;-83
2024/03/09 15:04:34;;;;;;;14.52;11.20;;;14.70;1.00;;;;;;6234546;22;50151;-83